Time;durP1;ratioP1;P1;durP2;ratioP2;P2;SDS_P1;SDS_P2;PMS_P1;PMS_P2;Temp;Humidity;BMP_temperature;BMP_pressure;BME280_temperature;BME280_humidity;BME280_pressure;Samples;Min_cycle;Max_cycle;Signal;HPM_P1;HPM_P2
2023/03/08 00:00:16;;;;;;;2.17;1.65;;;-1.10;99.90;;;;;;4988684;28;20073;-79
2023/03/08 00:02:41;;;;;;;3.33;1.92;;;-1.20;99.90;;;;;;4982258;28;20078;-79
2023/03/08 00:41:58;;;;;;;4.25;2.17;;;-1.30;99.90;;;;;;4617867;28;20600;-79
2023/03/08 00:44:24;;;;;;;5.78;2.20;;;-1.30;99.90;;;;;;4989102;28;20062;-80
2023/03/08 00:46:49;;;;;;;4.97;2.00;;;-1.40;99.90;;;;;;4987965;28;20085;-81
2023/03/08 00:49:15;;;;;;;3.88;2.10;;;-1.40;99.90;;;;;;4989532;28;20443;-80
2023/03/08 00:51:40;;;;;;;5.13;1.95;;;-1.30;99.90;;;;;;4989109;28;20050;-80
2023/03/08 00:54:06;;;;;;;3.08;2.00;;;-1.40;99.90;;;;;;4988023;28;20050;-80
2023/03/08 00:56:31;;;;;;;4.63;2.30;;;-1.30;99.90;;;;;;4989424;28;20050;-80
2023/03/08 00:58:57;;;;;;;3.83;2.38;;;-1.40;99.90;;;;;;4990869;28;20073;-80
2023/03/08 01:01:23;;;;;;;6.10;2.10;;;-1.40;99.90;;;;;;4990298;28;20319;-81
2023/03/08 01:03:48;;;;;;;3.42;2.30;;;-1.40;99.90;;;;;;4972816;28;20061;-80
2023/03/08 01:06:15;;;;;;;4.18;2.33;;;-1.40;99.90;;;;;;4987945;28;20394;-80
2023/03/08 01:08:41;;;;;;;3.40;2.38;;;-1.40;99.90;;;;;;4988862;28;20042;-80
2023/03/08 01:11:13;;;;;;;3.22;2.60;;;-1.40;99.90;;;;;;4987550;28;20042;-80
2023/03/08 01:13:38;;;;;;;5.60;2.08;;;-1.40;99.90;;;;;;4969842;28;20050;-80
2023/03/08 01:16:04;;;;;;;4.22;2.47;;;-1.40;99.90;;;;;;4969141;28;20061;-80
2023/03/08 01:18:31;;;;;;;3.97;2.55;;;-1.40;99.90;;;;;;4966017;28;20101;-78
2023/03/08 01:20:58;;;;;;;3.80;1.95;;;0.10;99.90;;;;;;4968872;28;20042;-77
2023/03/08 01:23:24;;;;;;;4.18;2.40;;;-1.40;99.90;;;;;;4989971;28;20055;-77
2023/03/08 01:26:01;;;;;;;3.53;2.60;;;-1.40;99.90;;;;;;4973523;28;20050;-77
2023/03/08 01:28:27;;;;;;;3.58;2.67;;;-1.50;99.90;;;;;;4989074;28;20046;-77
2023/03/08 01:30:52;;;;;;;3.78;2.50;;;-1.50;99.90;;;;;;4971509;28;20129;-78
2023/03/08 01:33:19;;;;;;;5.03;3.05;;;-1.50;99.90;;;;;;4989463;28;20166;-77
2023/03/08 01:35:46;;;;;;;3.33;2.78;;;-1.50;99.90;;;;;;4989642;28;20046;-77
2023/03/08 01:38:12;;;;;;;4.68;3.10;;;-1.50;99.90;;;;;;4988292;28;20143;-77
2023/03/08 01:40:37;;;;;;;4.53;2.90;;;-1.50;99.90;;;;;;4989478;28;20133;-80
2023/03/08 01:43:22;;;;;;;4.43;3.15;;;-1.50;99.90;;;;;;4988591;28;20054;-80
2023/03/08 01:46:15;;;;;;;;;;;;;;;;;;;;;
2023/03/08 01:48:51;;;;;;;5.80;4.10;;;-1.40;99.90;;;;;;4984979;28;20050;-80
2023/03/08 01:51:33;;;;;;;7.53;4.50;;;-1.50;99.90;;;;;;4986588;28;20058;-80
2023/03/08 01:54:08;;;;;;;5.88;4.22;;;-1.50;99.90;;;;;;4989276;28;20051;-80
2023/03/08 02:00:21;;;;;;;8.98;5.30;;;0.30;99.90;;;;;;4988547;28;20058;-80
2023/03/08 02:02:51;;;;;;;7.60;5.28;;;-1.50;99.90;;;;;;4986789;28;20062;-80
2023/03/08 02:05:18;;;;;;;7.70;5.65;;;-1.60;99.90;;;;;;4987607;28;20489;-77
2023/03/08 02:07:44;;;;;;;7.90;5.05;;;-1.60;99.90;;;;;;4988379;28;20069;-77
2023/03/08 02:10:11;;;;;;;8.43;5.22;;;-1.60;99.90;;;;;;4987897;28;20056;-77
2023/03/08 02:12:37;;;;;;;9.00;5.40;;;-1.70;99.90;;;;;;4985558;28;20034;-80
2023/03/08 02:15:07;;;;;;;8.38;6.10;;;-1.70;99.90;;;;;;4987744;28;20497;-80
2023/03/08 02:17:38;;;;;;;10.90;5.82;;;-1.70;99.90;;;;;;4983816;28;20070;-80
2023/03/08 02:20:15;;;;;;;8.52;5.70;;;-1.70;99.90;;;;;;4969764;28;20093;-80
2023/03/08 02:22:43;;;;;;;7.75;5.70;;;-1.70;99.90;;;;;;4987127;28;20066;-80
2023/03/08 02:25:17;;;;;;;9.43;6.28;;;-1.60;99.90;;;;;;4988835;28;20042;-80
2023/03/08 02:27:43;;;;;;;9.52;6.85;;;-1.60;99.90;;;;;;4988396;28;20551;-80
2023/03/08 02:30:11;;;;;;;9.10;6.63;;;-1.70;99.90;;;;;;4988511;28;20078;-80
2023/03/08 02:32:37;;;;;;;11.50;7.18;;;-1.60;99.90;;;;;;4988192;28;20042;-80
2023/03/08 02:35:03;;;;;;;9.27;6.72;;;-1.60;99.90;;;;;;4989108;28;20058;-80
2023/03/08 02:37:30;;;;;;;8.73;6.50;;;-1.60;99.90;;;;;;4985194;28;20058;-80
2023/03/08 02:39:56;;;;;;;10.20;6.82;;;-1.60;99.90;;;;;;4990013;28;20050;-80
2023/03/08 02:42:22;;;;;;;9.50;6.60;;;-1.60;99.90;;;;;;4984089;28;20054;-80
2023/03/08 02:44:47;;;;;;;10.95;7.15;;;-1.60;99.90;;;;;;4971917;28;20054;-80
2023/03/08 02:47:13;;;;;;;10.10;7.53;;;-1.60;99.90;;;;;;4984006;28;20445;-79
2023/03/08 02:49:38;;;;;;;12.57;6.95;;;-1.60;99.90;;;;;;4985576;28;20045;-79
2023/03/08 02:52:04;;;;;;;10.23;7.47;;;-1.60;99.90;;;;;;4987155;28;20112;-79
2023/03/08 02:54:29;;;;;;;13.38;7.05;;;-1.60;99.90;;;;;;4987427;28;20054;-79
2023/03/08 02:56:55;;;;;;;8.77;6.40;;;-1.70;99.90;;;;;;4969604;28;20057;-80
2023/03/08 02:59:21;;;;;;;8.93;6.90;;;-1.70;99.90;;;;;;4987534;28;20089;-79
2023/03/08 03:01:46;;;;;;;10.30;7.57;;;-1.70;99.90;;;;;;4987547;28;20504;-79
2023/03/08 03:04:12;;;;;;;9.15;7.03;;;-1.70;99.90;;;;;;4971133;28;20049;-80
2023/03/08 03:06:38;;;;;;;12.15;6.55;;;-1.70;99.90;;;;;;4986435;28;20066;-80
2023/03/08 03:09:08;;;;;;;12.35;6.90;;;-1.70;99.90;;;;;;4980040;28;20054;-77
2023/03/08 03:11:33;;;;;;;10.20;6.55;;;-1.70;99.90;;;;;;4980264;28;20046;-77
2023/03/08 03:13:59;;;;;;;9.68;6.68;;;-1.70;99.90;;;;;;4970115;28;20133;-77
2023/03/08 03:16:26;;;;;;;9.32;7.03;;;-1.30;99.90;;;;;;4984263;28;20039;-77
2023/03/08 03:18:53;;;;;;;10.38;7.93;;;-1.80;99.90;;;;;;4972257;28;20117;-80
2023/03/08 03:21:19;;;;;;;10.80;7.20;;;-1.80;99.90;;;;;;4979441;28;20056;-80
2023/03/08 03:23:45;;;;;;;11.10;7.00;;;-1.80;99.90;;;;;;4970935;28;20042;-79
2023/03/08 03:26:13;;;;;;;9.40;6.72;;;-1.80;99.90;;;;;;4989164;28;20042;-79
2023/03/08 03:28:40;;;;;;;8.95;7.38;;;-1.80;99.90;;;;;;4987824;28;20054;-79
2023/03/08 03:31:07;;;;;;;7.45;6.25;;;-1.90;99.90;;;;;;4987873;28;20042;-80
2023/03/08 03:33:33;;;;;;;9.23;6.38;;;-1.90;99.90;;;;;;4988200;28;20054;-79
2023/03/08 03:35:59;;;;;;;11.95;7.03;;;-1.90;99.90;;;;;;4989604;28;20050;-80
2023/03/08 03:38:25;;;;;;;7.40;6.40;;;-1.90;99.90;;;;;;4987181;28;20050;-80
2023/03/08 03:41:01;;;;;;;9.10;6.63;;;-1.90;99.90;;;;;;4988431;28;20128;-79
2023/03/08 03:43:27;;;;;;;10.35;8.02;;;-1.90;99.90;;;;;;4981882;28;20564;-80
2023/03/08 03:46:00;;;;;;;8.27;6.75;;;-2.00;99.90;;;;;;4985853;28;20046;-80
2023/03/08 03:48:26;;;;;;;8.23;6.18;;;-2.00;99.90;;;;;;4985845;28;20038;-80
2023/03/08 03:50:56;;;;;;;10.13;7.38;;;-2.00;99.90;;;;;;4987931;28;20477;-78
2023/03/08 03:53:22;;;;;;;9.02;6.65;;;-2.00;99.90;;;;;;4984008;28;20188;-79
2023/03/08 03:55:48;;;;;;;8.73;6.72;;;-2.10;99.90;;;;;;4969851;28;20057;-78
2023/03/08 03:58:14;;;;;;;11.07;7.95;;;-2.10;99.90;;;;;;4986368;28;20064;-78
2023/03/08 04:00:40;;;;;;;8.38;6.95;;;-2.10;99.90;;;;;;4985564;28;20513;-78
2023/03/08 04:03:06;;;;;;;9.98;7.35;;;-2.10;99.90;;;;;;4986409;28;20081;-78
2023/03/08 04:05:31;;;;;;;8.68;7.13;;;-2.10;99.90;;;;;;4987645;28;20050;-78
2023/03/08 04:07:57;;;;;;;9.90;7.82;;;-2.10;99.90;;;;;;4987342;28;20501;-78
2023/03/08 04:10:23;;;;;;;9.35;7.47;;;-2.10;99.90;;;;;;4981859;28;20070;-78
2023/03/08 04:12:49;;;;;;;9.27;7.50;;;-2.10;99.90;;;;;;4985337;28;20062;-78
2023/03/08 04:15:15;;;;;;;11.32;7.40;;;-1.90;99.90;;;;;;4983057;28;20078;-78
2023/03/08 04:17:41;;;;;;;9.55;7.88;;;-2.10;99.90;;;;;;4984975;28;20093;-78
2023/03/08 04:20:07;;;;;;;7.55;6.40;;;-2.10;99.90;;;;;;4972128;28;20046;-78
2023/03/08 04:22:32;;;;;;;9.73;7.55;;;-2.10;99.90;;;;;;4986784;28;20138;-79
2023/03/08 04:24:58;;;;;;;13.43;8.00;;;-2.10;99.90;;;;;;4988217;28;20129;-78
2023/03/08 04:27:24;;;;;;;10.98;8.07;;;-2.10;99.90;;;;;;4984932;28;20046;-78
2023/03/08 04:29:49;;;;;;;10.80;7.60;;;-2.10;99.90;;;;;;4984789;28;20050;-78
2023/03/08 04:32:15;;;;;;;10.57;7.43;;;-2.10;99.90;;;;;;4986402;28;20105;-78
2023/03/08 04:34:41;;;;;;;11.82;7.85;;;-2.10;99.90;;;;;;4986359;28;20045;-78
2023/03/08 04:37:11;;;;;;;9.73;7.70;;;-2.00;99.90;;;;;;4984937;28;20046;-79
2023/03/08 04:39:36;;;;;;;11.32;8.63;;;-2.00;99.90;;;;;;4983603;28;20050;-78
2023/03/08 04:42:03;;;;;;;11.32;8.65;;;-2.10;99.90;;;;;;4971276;28;20050;-78
2023/03/08 04:44:28;;;;;;;11.98;8.45;;;-2.10;99.90;;;;;;4981640;28;20497;-78
2023/03/08 04:46:54;;;;;;;9.73;8.60;;;-2.00;99.90;;;;;;4990226;28;20057;-78
2023/03/08 04:49:19;;;;;;;10.73;8.23;;;-2.00;99.90;;;;;;4990844;28;20038;-78
2023/03/08 04:51:45;;;;;;;11.75;8.25;;;-2.00;99.90;;;;;;4983671;28;20045;-78
2023/03/08 04:54:11;;;;;;;11.10;8.05;;;-2.10;99.90;;;;;;4989229;28;20050;-79
2023/03/08 04:56:37;;;;;;;13.65;8.65;;;-2.00;99.90;;;;;;4988693;28;20161;-78
2023/03/08 04:59:02;;;;;;;12.75;8.90;;;-2.00;99.90;;;;;;4989940;28;20370;-78
2023/03/08 05:01:28;;;;;;;11.60;8.50;;;-2.10;99.90;;;;;;4968828;28;20074;-78
2023/03/08 05:03:54;;;;;;;12.50;8.60;;;-2.10;99.90;;;;;;4990136;28;20050;-78
2023/03/08 05:06:22;;;;;;;11.10;8.15;;;-2.10;99.90;;;;;;4970061;28;20055;-78
2023/03/08 05:08:47;;;;;;;13.23;7.43;;;-2.10;99.90;;;;;;4985881;28;20049;-78
2023/03/08 05:11:18;;;;;;;11.52;8.35;;;-2.20;99.90;;;;;;4988828;28;20050;-78
2023/03/08 05:13:44;;;;;;;10.25;8.15;;;-2.20;99.90;;;;;;4991190;28;20051;-78
2023/03/08 05:16:09;;;;;;;11.65;8.30;;;-2.20;99.90;;;;;;4989083;28;20049;-78
2023/03/08 05:18:35;;;;;;;8.82;7.93;;;-2.20;99.90;;;;;;4989371;28;20046;-78
2023/03/08 05:21:06;;;;;;;12.95;8.07;;;-2.30;99.90;;;;;;4988219;28;20165;-78
2023/03/08 05:23:32;;;;;;;10.68;7.90;;;-2.20;99.90;;;;;;4990625;28;20412;-78
2023/03/08 05:26:00;;;;;;;11.82;8.05;;;-2.30;99.90;;;;;;4989419;28;20053;-78
2023/03/08 05:28:28;;;;;;;10.15;7.93;;;-2.30;99.90;;;;;;4989130;28;20079;-78
2023/03/08 05:31:05;;;;;;;12.02;8.43;;;-2.30;99.90;;;;;;4990773;28;20133;-78
2023/03/08 05:33:31;;;;;;;12.90;8.40;;;-2.30;99.90;;;;;;4991173;28;20042;-78
2023/03/08 05:35:57;;;;;;;10.88;8.90;;;-2.30;99.90;;;;;;4988857;28;20054;-78
2023/03/08 05:38:23;;;;;;;9.27;8.05;;;-2.40;99.90;;;;;;4988910;28;20142;-78
2023/03/08 05:40:49;;;;;;;12.88;8.25;;;-2.40;99.90;;;;;;4990479;28;20054;-78
2023/03/08 05:43:16;;;;;;;9.85;8.45;;;-2.40;99.90;;;;;;4984442;28;20081;-78
2023/03/08 05:45:42;;;;;;;9.85;8.50;;;-2.40;99.90;;;;;;4989640;28;20062;-77
2023/03/08 05:48:08;;;;;;;11.15;8.82;;;-2.40;99.90;;;;;;4984857;28;20049;-78
2023/03/08 05:50:36;;;;;;;10.80;9.20;;;-2.30;99.90;;;;;;4985079;28;20040;-78
2023/03/08 05:53:02;;;;;;;10.45;8.13;;;-2.50;99.90;;;;;;4988487;28;20050;-78
2023/03/08 05:55:27;;;;;;;10.48;8.82;;;-2.50;99.90;;;;;;4989984;28;20042;-78
2023/03/08 05:57:53;;;;;;;12.68;9.25;;;-2.50;99.90;;;;;;4989408;28;20056;-78
2023/03/08 06:00:19;;;;;;;10.30;7.72;;;-2.50;99.90;;;;;;4986037;28;20081;-78
2023/03/08 06:02:44;;;;;;;10.65;8.75;;;-2.50;99.90;;;;;;4988641;28;20055;-78
2023/03/08 06:05:10;;;;;;;10.75;7.95;;;-2.50;99.90;;;;;;4987386;28;20046;-78
2023/03/08 06:07:36;;;;;;;11.73;8.48;;;-2.50;99.90;;;;;;4971117;28;20045;-78
2023/03/08 06:10:01;;;;;;;9.70;8.65;;;-2.60;99.90;;;;;;4969925;28;20086;-78
2023/03/08 06:12:27;;;;;;;17.10;8.88;;;-2.40;99.90;;;;;;4987414;28;20109;-78
2023/03/08 06:14:53;;;;;;;10.48;8.77;;;-2.40;99.90;;;;;;4968502;28;20513;-78
2023/03/08 06:17:18;;;;;;;15.88;11.48;;;-2.40;99.90;;;;;;4972249;28;20050;-78
2023/03/08 06:19:45;;;;;;;11.80;9.15;;;-2.40;99.90;;;;;;4987689;28;20136;-78
2023/03/08 06:22:11;;;;;;;17.33;10.77;;;-2.40;99.90;;;;;;4987237;28;20473;-79
2023/03/08 06:24:36;;;;;;;12.55;9.77;;;-2.40;99.90;;;;;;4986905;28;20046;-79
2023/03/08 06:27:02;;;;;;;14.48;10.10;;;-2.40;99.90;;;;;;4988576;28;20042;-79
2023/03/08 06:29:28;;;;;;;13.07;10.23;;;-2.30;99.90;;;;;;4980048;28;20137;-79
2023/03/08 06:31:53;;;;;;;13.25;9.27;;;-2.30;99.90;;;;;;4983505;28;20050;-79
2023/03/08 06:34:20;;;;;;;13.88;9.48;;;-2.30;99.90;;;;;;4987412;28;20156;-79
2023/03/08 06:36:45;;;;;;;12.77;9.82;;;-2.30;99.90;;;;;;4986248;28;20046;-79
2023/03/08 06:39:13;;;;;;;13.57;10.25;;;-2.30;99.90;;;;;;4986822;28;20061;-79
2023/03/08 06:41:39;;;;;;;13.85;11.45;;;-2.30;99.90;;;;;;4986866;28;20460;-79
2023/03/08 06:44:04;;;;;;;11.40;9.75;;;-2.30;99.90;;;;;;4987956;28;20034;-79
2023/03/08 06:46:30;;;;;;;15.27;11.45;;;-2.30;99.90;;;;;;4988797;28;20531;-78
2023/03/08 06:48:55;;;;;;;16.58;12.93;;;-2.30;99.90;;;;;;4987211;28;20050;-79
2023/03/08 06:51:21;;;;;;;12.77;10.00;;;-2.30;99.90;;;;;;4988678;28;20730;-79
2023/03/08 06:53:48;;;;;;;9.77;8.13;;;-2.20;99.90;;;;;;4988045;28;20104;-79
2023/03/08 06:56:15;;;;;;;11.35;8.40;;;-2.20;99.90;;;;;;4987983;28;20093;-79
2023/03/08 06:58:41;;;;;;;11.18;7.88;;;-2.20;99.90;;;;;;4970297;28;20039;-78
2023/03/08 07:01:08;;;;;;;10.50;8.25;;;-2.20;99.90;;;;;;4988861;28;20042;-79
2023/03/08 07:03:35;;;;;;;8.88;7.43;;;-2.20;99.90;;;;;;4988784;28;20112;-78
2023/03/08 07:06:03;;;;;;;8.77;7.40;;;-2.10;99.90;;;;;;4989745;28;20096;-78
2023/03/08 07:08:29;;;;;;;9.88;7.72;;;-2.10;99.90;;;;;;4988524;28;20042;-78
2023/03/08 07:10:54;;;;;;;10.95;7.53;;;-2.00;99.90;;;;;;4989024;28;20408;-78
2023/03/08 07:13:22;;;;;;;11.45;7.43;;;-2.00;99.90;;;;;;4970209;28;20046;-76
2023/03/08 07:15:48;;;;;;;8.82;7.55;;;;;;;;;;4987962;28;20450;-77
2023/03/08 07:18:14;;;;;;;12.15;8.25;;;-1.90;99.90;;;;;;4988802;28;20397;-77
2023/03/08 07:20:39;;;;;;;10.95;7.65;;;-1.80;99.90;;;;;;4988586;28;20042;-77
2023/03/08 07:23:05;;;;;;;9.07;8.07;;;-1.80;99.90;;;;;;4986323;28;20132;-77
2023/03/08 07:25:31;;;;;;;9.27;7.50;;;-1.70;99.90;;;;;;4986967;28;20354;-76
2023/03/08 07:27:58;;;;;;;10.25;7.32;;;-1.60;99.90;;;;;;4985725;28;20051;-77
2023/03/08 07:30:25;;;;;;;11.70;8.20;;;-1.60;99.90;;;;;;4987976;28;20031;-77
2023/03/08 07:32:52;;;;;;;9.18;8.25;;;-1.50;99.90;;;;;;4985466;28;20377;-77
2023/03/08 07:35:18;;;;;;;10.52;8.23;;;-1.40;99.90;;;;;;4981113;28;20050;-77
2023/03/08 07:37:46;;;;;;;11.40;8.80;;;-0.20;99.90;;;;;;4987788;28;20053;-77
2023/03/08 07:40:15;;;;;;;10.48;8.13;;;-1.20;99.90;;;;;;4988770;28;20108;-77
2023/03/08 07:42:42;;;;;;;11.13;9.13;;;-1.00;99.90;;;;;;4988423;28;20050;-77
2023/03/08 07:45:08;;;;;;;12.93;9.30;;;-1.00;99.90;;;;;;4988662;28;20058;-77
2023/03/08 07:47:34;;;;;;;10.38;8.20;;;-0.90;99.90;;;;;;4985564;28;20043;-77
2023/03/08 07:50:00;;;;;;;13.00;9.32;;;-0.80;99.90;;;;;;4966833;28;20054;-77
2023/03/08 07:52:27;;;;;;;12.02;9.57;;;-0.70;99.90;;;;;;4985715;28;20081;-78
2023/03/08 07:54:53;;;;;;;12.82;9.45;;;-0.70;99.90;;;;;;4988019;28;20502;-77
2023/03/08 07:57:18;;;;;;;12.57;8.98;;;-0.60;99.90;;;;;;4988680;28;20052;-77
2023/03/08 07:59:44;;;;;;;10.88;9.02;;;-0.60;99.90;;;;;;4985484;28;20062;-77
2023/03/08 08:02:12;;;;;;;13.07;10.07;;;-0.50;99.90;;;;;;4988422;28;20043;-78
2023/03/08 08:04:38;;;;;;;12.23;9.20;;;-0.50;99.90;;;;;;4988385;28;20093;-77
2023/03/08 08:07:03;;;;;;;12.00;9.30;;;-0.40;99.90;;;;;;4985287;28;20524;-77
2023/03/08 08:09:29;;;;;;;14.45;9.57;;;-0.30;99.90;;;;;;4988055;28;20409;-77
2023/03/08 08:11:56;;;;;;;13.65;9.57;;;-0.30;99.90;;;;;;4986564;28;20050;-80
2023/03/08 08:14:21;;;;;;;14.43;10.07;;;-0.30;99.90;;;;;;4988212;28;20567;-81
2023/03/08 08:16:47;;;;;;;13.93;10.32;;;-0.30;99.90;;;;;;4988119;28;20057;-83
2023/03/08 08:19:13;;;;;;;14.30;9.55;;;-0.20;99.90;;;;;;4970625;28;20110;-81
2023/03/08 08:21:39;;;;;;;12.15;9.70;;;-0.20;99.90;;;;;;4989123;28;20058;-82
2023/03/08 08:24:06;;;;;;;14.80;10.80;;;0.90;99.90;;;;;;4990149;28;20057;-82
2023/03/08 08:26:32;;;;;;;15.45;11.35;;;-0.10;99.90;;;;;;4990022;28;20050;-82
2023/03/08 08:28:57;;;;;;;16.95;10.95;;;0.00;99.90;;;;;;4990128;28;20057;-82
2023/03/08 08:31:29;;;;;;;15.27;10.70;;;0.00;99.90;;;;;;4990203;28;20137;-82
2023/03/08 08:33:56;;;;;;;14.40;11.10;;;0.00;99.90;;;;;;4973844;28;20054;-83
2023/03/08 08:36:22;;;;;;;13.82;10.43;;;0.00;99.90;;;;;;4989746;28;20050;-82
2023/03/08 08:38:48;;;;;;;14.60;10.98;;;0.00;99.90;;;;;;4990740;28;20077;-83
2023/03/08 08:41:16;;;;;;;22.67;11.90;;;0.00;99.90;;;;;;4990040;28;20050;-83
2023/03/08 08:43:43;;;;;;;17.02;12.43;;;0.00;99.90;;;;;;4990887;28;20535;-82
2023/03/08 08:46:09;;;;;;;16.05;11.90;;;0.00;99.90;;;;;;4990493;28;20430;-82
2023/03/08 08:48:37;;;;;;;16.67;11.73;;;0.10;99.90;;;;;;4991642;28;20054;-83
2023/03/08 08:51:06;;;;;;;19.00;13.00;;;0.20;99.90;;;;;;4989891;28;20428;-83
2023/03/08 08:53:32;;;;;;;18.35;12.48;;;0.30;99.90;;;;;;4989334;28;20720;-83
2023/03/08 08:55:58;;;;;;;17.10;12.70;;;0.30;99.90;;;;;;4990054;28;20057;-83
2023/03/08 08:58:24;;;;;;;17.08;12.60;;;0.30;99.90;;;;;;4990199;28;20049;-83
2023/03/08 09:00:50;;;;;;;18.95;13.82;;;0.40;99.90;;;;;;4974368;28;20124;-82
2023/03/08 09:03:15;;;;;;;18.00;13.45;;;0.40;99.90;;;;;;4973893;28;20100;-83
2023/03/08 09:05:43;;;;;;;20.05;14.80;;;0.60;99.90;;;;;;4989797;28;20080;-82
2023/03/08 09:08:09;;;;;;;17.27;12.30;;;0.60;99.90;;;;;;4990126;28;20517;-83
2023/03/08 09:10:38;;;;;;;19.58;13.45;;;0.60;99.90;;;;;;4991606;28;20061;-80
2023/03/08 09:13:04;;;;;;;13.82;11.23;;;0.60;99.90;;;;;;4990164;28;20089;-81
2023/03/08 09:15:30;;;;;;;21.65;12.77;;;0.60;99.90;;;;;;4989800;28;20061;-81
2023/03/08 09:17:56;;;;;;;15.23;12.45;;;0.60;99.90;;;;;;4973664;28;20494;-80
2023/03/08 09:20:21;;;;;;;19.83;11.82;;;0.60;99.90;;;;;;4987156;28;20057;-81
2023/03/08 09:22:47;;;;;;;15.50;11.85;;;0.50;99.90;;;;;;4986981;28;20046;-79
2023/03/08 09:25:13;;;;;;;18.73;13.32;;;0.50;99.90;;;;;;4981707;28;20089;-81
2023/03/08 09:27:40;;;;;;;18.75;12.73;;;0.60;99.90;;;;;;4983094;28;20092;-81
2023/03/08 09:30:11;;;;;;;19.58;12.75;;;0.70;99.90;;;;;;4990119;28;20050;-81
2023/03/08 09:32:37;;;;;;;18.10;13.13;;;0.70;99.90;;;;;;4988254;28;20129;-81
2023/03/08 09:35:04;;;;;;;18.98;13.57;;;0.80;99.90;;;;;;4988471;28;20130;-82
2023/03/08 09:37:30;;;;;;;17.80;13.20;;;0.80;99.90;;;;;;4988649;28;20485;-81
2023/03/08 09:39:55;;;;;;;15.38;12.35;;;0.90;99.90;;;;;;4988565;28;20393;-81
2023/03/08 09:42:26;;;;;;;16.33;12.38;;;0.90;99.90;;;;;;4984046;28;20058;-81
2023/03/08 09:45:03;;;;;;;18.17;12.55;;;0.90;99.90;;;;;;4969929;28;20066;-82
2023/03/08 09:47:48;;;;;;;16.65;12.45;;;1.00;99.90;;;;;;4979466;28;20434;-81
2023/03/08 09:50:44;;;;;;;14.52;12.13;;;1.10;99.90;;;;;;4990038;28;20089;-81
2023/03/08 09:53:33;;;;;;;14.85;10.75;;;1.10;99.90;;;;;;4986723;28;20054;-81
2023/03/08 09:56:05;;;;;;;14.75;10.95;;;1.10;99.90;;;;;;4980630;28;20092;-80
2023/03/08 09:58:34;;;;;;;;;;;1.20;99.90;;;;;;4988658;28;20054;-82
2023/03/08 10:01:11;;;;;;;13.48;10.60;;;1.10;99.90;;;;;;4989079;28;20293;-82
2023/03/08 10:04:07;;;;;;;14.15;11.57;;;1.20;99.90;;;;;;4989533;28;20054;-81
2023/03/08 10:06:46;;;;;;;13.50;10.32;;;1.20;99.90;;;;;;4987504;28;20169;-81
2023/03/08 10:09:30;;;;;;;18.38;11.07;;;1.30;99.90;;;;;;4988070;28;20141;-82
2023/03/08 10:12:10;;;;;;;15.05;10.82;;;1.40;99.90;;;;;;4989126;28;20105;-79
2023/03/08 10:14:42;;;;;;;15.80;11.95;;;1.50;99.90;;;;;;4986957;28;20081;-79
2023/03/08 10:17:25;;;;;;;15.20;11.77;;;1.60;99.90;;;;;;4972848;28;20112;-79
2023/03/08 10:19:58;;;;;;;16.23;12.05;;;1.60;99.90;;;;;;4989239;28;20046;-80
2023/03/08 10:22:30;;;;;;;17.83;13.05;;;1.60;99.90;;;;;;4971620;28;20049;-79
2023/03/08 10:25:16;;;;;;;14.35;10.73;;;1.70;99.90;;;;;;4989765;28;20064;-79
2023/03/08 10:27:42;;;;;;;13.55;10.25;;;1.80;99.90;;;;;;4987516;28;20068;-79
2023/03/08 10:30:18;;;;;;;13.30;10.50;;;1.80;99.90;;;;;;4989386;28;20049;-79
2023/03/08 10:32:46;;;;;;;13.60;10.18;;;1.90;99.90;;;;;;4989021;28;20112;-80
2023/03/08 10:35:12;;;;;;;12.25;9.70;;;2.10;99.90;;;;;;4989524;28;20093;-79
2023/03/08 10:37:38;;;;;;;12.65;10.30;;;2.10;99.90;;;;;;4989702;28;20046;-79
2023/03/08 10:40:15;;;;;;;15.20;10.30;;;2.20;99.90;;;;;;4989136;28;20053;-79
2023/03/08 10:42:47;;;;;;;13.77;10.63;;;2.30;99.90;;;;;;4987312;28;20515;-79
2023/03/08 10:45:20;;;;;;;13.35;10.13;;;2.40;99.90;;;;;;4987327;28;20046;-80
2023/03/08 10:47:59;;;;;;;12.18;9.75;;;2.50;99.90;;;;;;4988830;28;20053;-79
2023/03/08 10:50:37;;;;;;;12.40;9.70;;;2.50;99.90;;;;;;4988339;28;20057;-80
2023/03/08 10:53:15;;;;;;;12.38;10.48;;;3.00;99.90;;;;;;4986416;28;20053;-80
2023/03/08 10:55:46;;;;;;;12.45;10.18;;;2.50;99.90;;;;;;4969679;28;20509;-80
2023/03/08 10:58:33;;;;;;;17.52;12.13;;;2.60;99.90;;;;;;4968487;28;20101;-80
2023/03/08 11:01:03;;;;;;;15.02;11.23;;;2.70;99.90;;;;;;4969892;28;20051;-80
2023/03/08 11:03:29;;;;;;;12.15;10.07;;;2.90;99.90;;;;;;4969426;28;20058;-79
2023/03/08 11:06:11;;;;;;;13.10;10.45;;;2.90;99.90;;;;;;4969811;28;20047;-80
2023/03/08 11:08:49;;;;;;;13.07;11.05;;;2.90;99.90;;;;;;4988410;28;20050;-79
2023/03/08 11:11:15;;;;;;;13.05;10.80;;;2.90;99.90;;;;;;4987176;28;20859;-83
2023/03/08 11:13:43;;;;;;;15.90;10.55;;;2.90;99.90;;;;;;4987611;28;20050;-83
2023/03/08 11:16:34;;;;;;;14.95;11.50;;;2.80;99.90;;;;;;4968808;28;20101;-83
2023/03/08 11:19:14;;;;;;;14.80;10.75;;;2.90;99.90;;;;;;4986422;28;20050;-83
2023/03/08 11:22:14;;;;;;;13.30;9.98;;;3.00;99.90;;;;;;4983384;28;20054;-84
2023/03/08 11:24:59;;;;;;;15.60;10.07;;;3.00;99.90;;;;;;4967214;28;20077;-84
2023/03/08 11:28:11;;;;;;;14.43;9.77;;;3.00;99.90;;;;;;4967314;28;20204;-84
2023/03/08 11:30:48;;;;;;;15.30;9.75;;;3.10;99.90;;;;;;4974477;28;20050;-83
2023/03/08 11:33:35;;;;;;;14.73;9.60;;;3.20;99.90;;;;;;4985027;28;20050;-83
2023/03/08 11:36:19;;;;;;;13.50;9.57;;;3.30;99.90;;;;;;4984591;28;20061;-83
2023/03/08 11:38:55;;;;;;;14.50;9.05;;;3.30;99.90;;;;;;4970560;28;20133;-83
2023/03/08 11:41:40;;;;;;;14.73;9.85;;;3.30;99.90;;;;;;4966968;28;20062;-83
2023/03/08 11:44:30;;;;;;;14.55;10.35;;;3.30;99.90;;;;;;4975526;28;20058;-83
2023/03/08 11:47:07;;;;;;;17.95;10.68;;;3.40;99.90;;;;;;4970447;28;20771;-83
2023/03/08 11:50:04;;;;;;;13.68;10.43;;;3.40;99.90;;;;;;4985918;28;20078;-83
2023/03/08 11:52:52;;;;;;;15.80;10.35;;;3.50;99.90;;;;;;4981367;28;20497;-85
2023/03/08 11:55:30;;;;;;;15.88;11.35;;;3.60;99.90;;;;;;4972018;28;20050;-86
2023/03/08 11:58:19;;;;;;;14.68;10.35;;;3.60;99.90;;;;;;4990330;28;20077;-83
2023/03/08 12:00:47;;;;;;;13.20;9.80;;;3.70;99.90;;;;;;4991907;28;20069;-83
2023/03/08 12:03:25;;;;;;;14.40;9.77;;;3.80;99.90;;;;;;4989514;28;20488;-83
2023/03/08 12:05:53;;;;;;;13.52;9.38;;;3.80;99.90;;;;;;4989088;28;20050;-82
2023/03/08 12:08:40;;;;;;;10.98;7.97;;;4.40;99.90;;;;;;4973217;28;20513;-83
2023/03/08 12:11:12;;;;;;;15.30;9.25;;;3.70;99.90;;;;;;4974678;28;20038;-83
2023/03/08 12:13:43;;;;;;;15.68;8.98;;;3.70;99.90;;;;;;4990354;28;20126;-83
2023/03/08 12:16:24;;;;;;;11.55;8.93;;;3.80;99.90;;;;;;4990157;28;20100;-83
2023/03/08 12:19:31;;;;;;;10.45;8.27;;;3.80;99.90;;;;;;4990333;28;20058;-83
2023/03/08 12:22:07;;;;;;;10.80;7.70;;;3.90;99.90;;;;;;4991312;28;20042;-85
2023/03/08 12:25:13;;;;;;;10.52;7.57;;;3.90;99.90;;;;;;4986103;28;20059;-84
2023/03/08 12:28:00;;;;;;;12.82;8.50;;;4.00;99.90;;;;;;4984048;28;20046;-82
2023/03/08 12:30:53;;;;;;;9.02;6.60;;;4.10;99.90;;;;;;4989015;28;20042;-82
2023/03/08 12:33:19;;;;;;;10.90;6.72;;;4.20;99.90;;;;;;4990731;28;20561;-82
2023/03/08 12:35:52;;;;;;;8.27;5.18;;;4.20;99.90;;;;;;4989665;28;20362;-82
2023/03/08 12:38:18;;;;;;;9.30;6.05;;;4.20;99.90;;;;;;4990084;28;20133;-82
2023/03/08 12:40:53;;;;;;;7.82;5.97;;;4.20;99.90;;;;;;4989027;28;20069;-81
2023/03/08 12:43:18;;;;;;;8.60;5.30;;;4.30;99.90;;;;;;4989974;28;20070;-82
2023/03/08 12:45:59;;;;;;;10.32;5.63;;;5.20;99.90;;;;;;4989583;28;20042;-82
2023/03/08 12:48:26;;;;;;;9.15;5.40;;;4.20;99.90;;;;;;4988439;28;20140;-83
2023/03/08 12:51:20;;;;;;;8.25;5.43;;;4.20;99.90;;;;;;4990722;28;20128;-82
2023/03/08 12:53:49;;;;;;;8.18;5.07;;;4.30;99.90;;;;;;4988434;28;20070;-82
2023/03/08 12:56:30;;;;;;;6.38;5.00;;;4.40;99.90;;;;;;4973469;28;20073;-82
2023/03/08 12:59:01;;;;;;;8.93;5.65;;;4.40;99.90;;;;;;4989379;28;20057;-82
2023/03/08 13:01:58;;;;;;;6.93;5.03;;;4.40;99.90;;;;;;4989696;28;20385;-82
2023/03/08 13:04:31;;;;;;;9.07;4.63;;;4.40;99.90;;;;;;4987550;28;20332;-82
2023/03/08 13:07:18;;;;;;;6.18;4.10;;;4.40;99.90;;;;;;4989588;28;20424;-83
2023/03/08 13:09:53;;;;;;;8.25;5.03;;;4.40;99.90;;;;;;4989072;28;20469;-83
2023/03/08 13:12:28;;;;;;;7.15;4.85;;;4.40;99.90;;;;;;4990238;28;20093;-83
2023/03/08 13:15:13;;;;;;;6.65;4.05;;;4.40;99.90;;;;;;4973593;28;20042;-83
2023/03/08 13:17:47;;;;;;;6.22;3.92;;;4.40;99.90;;;;;;4989743;28;20078;-82
2023/03/08 13:20:39;;;;;;;6.85;4.15;;;4.40;99.90;;;;;;4972703;28;20046;-82
2023/03/08 13:23:13;;;;;;;6.93;4.13;;;4.40;99.90;;;;;;4988671;28;20163;-80
2023/03/08 13:26:00;;;;;;;6.65;4.40;;;4.40;99.90;;;;;;4988389;28;20053;-82
2023/03/08 13:28:32;;;;;;;6.72;4.97;;;4.40;99.90;;;;;;4989296;28;20072;-81
2023/03/08 13:31:21;;;;;;;7.97;4.95;;;4.40;99.90;;;;;;4985710;28;20385;-82
2023/03/08 13:33:52;;;;;;;7.13;4.80;;;4.40;99.90;;;;;;4988160;28;20685;-84
2023/03/08 13:36:18;;;;;;;7.35;4.43;;;4.30;99.90;;;;;;4987512;28;20189;-79
2023/03/08 13:38:52;;;;;;;5.53;4.03;;;4.50;99.90;;;;;;4988743;28;20530;-82